sensor_id;sensor_type;location;lat;lon;timestamp;pressure;altitude;pressure_sealevel;temperature;humidity
7614;BME280;3848;42.016;23.098;2023-02-04T00:00:09;97233.09;;;1.90;100.00
7614;BME280;3848;42.016;23.098;2023-02-04T00:02:38;97225.00;;;2.00;100.00
7614;BME280;3848;42.016;23.098;2023-02-04T00:05:05;97228.47;;;2.05;100.00
7614;BME280;3848;42.016;23.098;2023-02-04T00:07:33;97232.47;;;1.99;100.00
7614;BME280;3848;42.016;23.098;2023-02-04T00:10:00;97227.31;;;1.93;100.00
7614;BME280;3848;42.016;23.098;2023-02-04T00:12:27;97209.59;;;1.87;100.00
7614;BME280;3848;42.016;23.098;2023-02-04T00:14:54;97215.59;;;1.92;100.00
7614;BME280;3848;42.016;23.098;2023-02-04T00:17:21;97207.19;;;1.90;100.00
7614;BME280;3848;42.016;23.098;2023-02-04T00:19:48;97211.31;;;1.88;100.00
7614;BME280;3848;42.016;23.098;2023-02-04T00:22:14;97209.59;;;1.87;100.00
7614;BME280;3848;42.016;23.098;2023-02-04T00:24:42;97195.28;;;1.82;100.00
7614;BME280;3848;42.016;23.098;2023-02-04T00:27:14;97202.88;;;1.86;100.00
7614;BME280;3848;42.016;23.098;2023-02-04T00:29:41;97189.66;;;1.90;100.00
7614;BME280;3848;42.016;23.098;2023-02-04T00:32:08;97175.59;;;1.95;100.00
7614;BME280;3848;42.016;23.098;2023-02-04T00:34:35;97189.22;;;2.06;100.00
7614;BME280;3848;42.016;23.098;2023-02-04T00:37:02;97157.16;;;1.93;100.00
7614;BME280;3848;42.016;23.098;2023-02-04T00:39:29;97167.47;;;2.05;100.00
7614;BME280;3848;42.016;23.098;2023-02-04T00:41:57;97175.28;;;2.16;100.00
7614;BME280;3848;42.016;23.098;2023-02-04T00:44:24;97173.88;;;2.27;100.00
7614;BME280;3848;42.016;23.098;2023-02-04T00:46:51;97181.59;;;2.34;100.00
7614;BME280;3848;42.016;23.098;2023-02-04T00:49:17;97173.25;;;2.34;100.00
7614;BME280;3848;42.016;23.098;2023-02-04T00:51:44;97174.22;;;2.40;100.00
7614;BME280;3848;42.016;23.098;2023-02-04T00:54:11;97170.16;;;2.45;100.00
7614;BME280;3848;42.016;23.098;2023-02-04T00:56:38;97169.38;;;2.48;100.00
7614;BME280;3848;42.016;23.098;2023-02-04T00:59:07;97167.16;;;2.59;100.00
7614;BME280;3848;42.016;23.098;2023-02-04T01:01:34;97085.91;;;2.16;100.00
7614;BME280;3848;42.016;23.098;2023-02-04T01:04:01;97129.31;;;2.50;100.00
7614;BME280;3848;42.016;23.098;2023-02-04T01:06:27;97153.19;;;2.70;100.00
7614;BME280;3848;42.016;23.098;2023-02-04T01:08:54;97149.94;;;2.74;100.00
7614;BME280;3848;42.016;23.098;2023-02-04T01:11:21;97148.34;;;2.78;100.00
7614;BME280;3848;42.016;23.098;2023-02-04T01:13:48;97134.84;;;2.71;100.00
7614;BME280;3848;42.016;23.098;2023-02-04T01:16:16;97134.91;;;2.74;100.00
7614;BME280;3848;42.016;23.098;2023-02-04T01:18:43;97135.84;;;2.79;100.00
7614;BME280;3848;42.016;23.098;2023-02-04T01:21:10;97129.16;;;2.80;100.00
7614;BME280;3848;42.016;23.098;2023-02-04T01:23:37;97132.38;;;2.74;100.00
7614;BME280;3848;42.016;23.098;2023-02-04T01:26:04;97120.66;;;2.73;100.00
7614;BME280;3848;42.016;23.098;2023-02-04T01:28:31;97118.97;;;2.72;100.00
7614;BME280;3848;42.016;23.098;2023-02-04T01:30:58;97085.03;;;2.50;100.00
7614;BME280;3848;42.016;23.098;2023-02-04T01:33:26;97122.34;;;2.74;100.00
7614;BME280;3848;42.016;23.098;2023-02-04T01:35:53;97114.81;;;2.72;100.00
7614;BME280;3848;42.016;23.098;2023-02-04T01:38:20;97110.44;;;2.65;100.00
7614;BME280;3848;42.016;23.098;2023-02-04T01:40:47;97108.69;;;2.61;100.00
7614;BME280;3848;42.016;23.098;2023-02-04T01:43:13;97110.28;;;2.58;100.00
7614;BME280;3848;42.016;23.098;2023-02-04T01:45:42;97109.53;;;2.62;100.00
7614;BME280;3848;42.016;23.098;2023-02-04T01:48:09;97109.63;;;2.66;100.00
7614;BME280;3848;42.016;23.098;2023-02-04T01:50:38;97107.00;;;2.60;100.00
7614;BME280;3848;42.016;23.098;2023-02-04T01:53:05;97097.63;;;2.52;100.00
7614;BME280;3848;42.016;23.098;2023-02-04T01:55:32;97106.06;;;2.55;100.00
7614;BME280;3848;42.016;23.098;2023-02-04T01:58:16;97094.34;;;2.56;100.00
7614;BME280;3848;42.016;23.098;2023-02-04T02:00:43;97093.56;;;2.58;100.00
7614;BME280;3848;42.016;23.098;2023-02-04T02:03:11;97081.06;;;2.60;100.00
7614;BME280;3848;42.016;23.098;2023-02-04T02:05:41;97078.44;;;2.54;100.00
7614;BME280;3848;42.016;23.098;2023-02-04T02:08:10;97059.78;;;2.42;100.00
7614;BME280;3848;42.016;23.098;2023-02-04T02:10:39;97055.53;;;2.40;100.00
7614;BME280;3848;42.016;23.098;2023-02-04T02:13:09;97068.91;;;2.39;100.00
7614;BME280;3848;42.016;23.098;2023-02-04T02:15:36;97068.50;;;2.22;100.00
7614;BME280;3848;42.016;23.098;2023-02-04T02:18:03;97070.81;;;2.13;100.00
7614;BME280;3848;42.016;23.098;2023-02-04T02:20:30;97074.09;;;2.10;100.00
7614;BME280;3848;42.016;23.098;2023-02-04T02:23:03;97061.63;;;2.13;100.00
7614;BME280;3848;42.016;23.098;2023-02-04T02:25:33;97049.75;;;2.06;100.00
7614;BME280;3848;42.016;23.098;2023-02-04T02:28:00;97033.69;;;1.98;100.00
7614;BME280;3848;42.016;23.098;2023-02-04T02:30:28;97047.88;;;1.98;100.00
7614;BME280;3848;42.016;23.098;2023-02-04T02:32:55;97050.28;;;1.93;100.00
7614;BME280;3848;42.016;23.098;2023-02-04T02:35:23;97054.25;;;1.85;100.00
7614;BME280;3848;42.016;23.098;2023-02-04T02:37:49;97049.19;;;1.83;100.00
7614;BME280;3848;42.016;23.098;2023-02-04T02:40:17;97055.78;;;1.80;100.00
7614;BME280;3848;42.016;23.098;2023-02-04T02:42:48;97048.28;;;1.80;100.00
7614;BME280;3848;42.016;23.098;2023-02-04T02:45:20;97054.28;;;1.87;100.00
7614;BME280;3848;42.016;23.098;2023-02-04T02:47:48;97021.38;;;1.71;100.00
7614;BME280;3848;42.016;23.098;2023-02-04T02:50:19;97035.97;;;1.88;100.00
7614;BME280;3848;42.016;23.098;2023-02-04T02:52:46;97023.66;;;1.97;100.00
7614;BME280;3848;42.016;23.098;2023-02-04T02:55:15;96994.34;;;1.94;100.00
7614;BME280;3848;42.016;23.098;2023-02-04T02:57:43;97001.91;;;1.96;100.00
7614;BME280;3848;42.016;23.098;2023-02-04T03:00:17;97008.84;;;2.07;100.00
7614;BME280;3848;42.016;23.098;2023-02-04T03:02:50;96945.50;;;1.75;100.00
7614;BME280;3848;42.016;23.098;2023-02-04T03:05:19;96995.53;;;2.08;100.00
7614;BME280;3848;42.016;23.098;2023-02-04T03:07:46;96995.41;;;2.04;100.00
7614;BME280;3848;42.016;23.098;2023-02-04T03:10:12;96994.59;;;2.05;100.00
7614;BME280;3848;42.016;23.098;2023-02-04T03:12:39;96983.78;;;2.07;100.00
7614;BME280;3848;42.016;23.098;2023-02-04T03:15:06;96991.44;;;2.12;100.00
7614;BME280;3848;42.016;23.098;2023-02-04T03:17:35;96979.78;;;2.14;100.00
7614;BME280;3848;42.016;23.098;2023-02-04T03:20:03;96973.94;;;2.15;100.00
7614;BME280;3848;42.016;23.098;2023-02-04T03:22:30;96962.25;;;2.14;100.00
7614;BME280;3848;42.016;23.098;2023-02-04T03:24:57;96959.88;;;2.22;100.00
7614;BME280;3848;42.016;23.098;2023-02-04T03:27:24;96949.00;;;2.21;100.00
7614;BME280;3848;42.016;23.098;2023-02-04T03:29:51;96934.66;;;2.14;100.00
7614;BME280;3848;42.016;23.098;2023-02-04T03:32:17;96953.44;;;2.31;100.00
7614;BME280;3848;42.016;23.098;2023-02-04T03:34:45;96944.34;;;2.36;100.00
7614;BME280;3848;42.016;23.098;2023-02-04T03:37:12;96937.63;;;2.35;100.00
7614;BME280;3848;42.016;23.098;2023-02-04T03:39:39;96941.59;;;2.26;100.00
7614;BME280;3848;42.016;23.098;2023-02-04T03:42:06;96894.25;;;1.99;100.00
7614;BME280;3848;42.016;23.098;2023-02-04T03:44:33;96950.91;;;2.31;100.00
7614;BME280;3848;42.016;23.098;2023-02-04T03:47:00;96954.38;;;2.36;100.00
7614;BME280;3848;42.016;23.098;2023-02-04T03:49:26;96934.28;;;2.35;100.00
7614;BME280;3848;42.016;23.098;2023-02-04T03:51:55;96936.97;;;2.45;100.00
7614;BME280;3848;42.016;23.098;2023-02-04T03:54:22;96926.25;;;2.51;100.00
7614;BME280;3848;42.016;23.098;2023-02-04T03:56:48;96934.72;;;2.56;100.00
7614;BME280;3848;42.016;23.098;2023-02-04T03:59:15;96934.75;;;2.58;100.00
7614;BME280;3848;42.016;23.098;2023-02-04T04:01:42;96931.31;;;2.53;100.00
7614;BME280;3848;42.016;23.098;2023-02-04T04:04:09;96931.22;;;2.50;100.00
7614;BME280;3848;42.016;23.098;2023-02-04T04:06:35;96934.63;;;2.52;100.00
7614;BME280;3848;42.016;23.098;2023-02-04T04:09:03;96924.50;;;2.49;100.00
7614;BME280;3848;42.016;23.098;2023-02-04T04:11:30;96920.28;;;2.46;100.00
7614;BME280;3848;42.016;23.098;2023-02-04T04:13:57;96911.81;;;2.41;100.00
7614;BME280;3848;42.016;23.098;2023-02-04T04:16:25;96851.91;;;2.11;100.00
7614;BME280;3848;42.016;23.098;2023-02-04T04:18:52;96899.25;;;2.38;100.00
7614;BME280;3848;42.016;23.098;2023-02-04T04:21:19;96906.88;;;2.44;100.00
7614;BME280;3848;42.016;23.098;2023-02-04T04:23:46;96901.81;;;2.42;100.00
7614;BME280;3848;42.016;23.098;2023-02-04T04:26:14;96904.28;;;2.39;100.00
7614;BME280;3848;42.016;23.098;2023-02-04T04:28:41;96900.09;;;2.40;100.00
7614;BME280;3848;42.016;23.098;2023-02-04T04:31:08;96912.78;;;2.48;100.00
7614;BME280;3848;42.016;23.098;2023-02-04T04:33:35;96902.84;;;2.51;100.00
7614;BME280;3848;42.016;23.098;2023-02-04T04:36:03;96907.09;;;2.55;100.00
7614;BME280;3848;42.016;23.098;2023-02-04T04:38:30;96896.28;;;2.57;100.00
7614;BME280;3848;42.016;23.098;2023-02-04T04:40:57;96890.53;;;2.64;100.00
7614;BME280;3848;42.016;23.098;2023-02-04T04:43:25;96889.75;;;2.67;100.00
7614;BME280;3848;42.016;23.098;2023-02-04T04:45:51;96879.78;;;2.70;100.00
7614;BME280;3848;42.016;23.098;2023-02-04T04:48:18;96874.84;;;2.73;100.00
7614;BME280;3848;42.016;23.098;2023-02-04T04:50:45;96869.00;;;2.74;100.00
7614;BME280;3848;42.016;23.098;2023-02-04T04:53:12;96873.19;;;2.73;100.00
7614;BME280;3848;42.016;23.098;2023-02-04T04:55:39;96874.75;;;2.70;100.00
7614;BME280;3848;42.016;23.098;2023-02-04T04:58:06;96859.50;;;2.58;100.00
7614;BME280;3848;42.016;23.098;2023-02-04T05:00:35;96878.16;;;2.72;100.00
7614;BME280;3848;42.016;23.098;2023-02-04T05:03:01;96881.50;;;2.71;100.00
7614;BME280;3848;42.016;23.098;2023-02-04T05:05:28;96868.78;;;2.63;100.00
7614;BME280;3848;42.016;23.098;2023-02-04T05:07:55;96875.56;;;2.67;100.00
7614;BME280;3848;42.016;23.098;2023-02-04T05:10:22;96879.84;;;2.71;100.00
7614;BME280;3848;42.016;23.098;2023-02-04T05:12:49;96888.25;;;2.75;100.00
7614;BME280;3848;42.016;23.098;2023-02-04T05:15:15;96873.28;;;2.80;100.00
7614;BME280;3848;42.016;23.098;2023-02-04T05:17:43;96873.31;;;2.81;100.00
7614;BME280;3848;42.016;23.098;2023-02-04T05:20:11;96873.31;;;2.81;100.00
7614;BME280;3848;42.016;23.098;2023-02-04T05:22:37;96874.97;;;2.81;100.00
7614;BME280;3848;42.016;23.098;2023-02-04T05:25:05;96882.63;;;2.88;100.00
7614;BME280;3848;42.016;23.098;2023-02-04T05:27:32;96887.59;;;2.85;100.00
7614;BME280;3848;42.016;23.098;2023-02-04T05:29:58;96881.69;;;2.82;100.00
7614;BME280;3848;42.016;23.098;2023-02-04T05:32:25;96876.69;;;2.83;100.00
7614;BME280;3848;42.016;23.098;2023-02-04T05:34:53;96886.78;;;2.88;100.00
7614;BME280;3848;42.016;23.098;2023-02-04T05:37:20;96898.63;;;2.93;100.00
7614;BME280;3848;42.016;23.098;2023-02-04T05:39:47;96895.94;;;2.84;100.00
7614;BME280;3848;42.016;23.098;2023-02-04T05:42:14;96901.97;;;2.92;100.00
7614;BME280;3848;42.016;23.098;2023-02-04T05:44:41;96903.66;;;2.95;100.00
7614;BME280;3848;42.016;23.098;2023-02-04T05:47:07;96904.53;;;2.97;100.00
7614;BME280;3848;42.016;23.098;2023-02-04T05:49:34;96904.50;;;2.94;100.00
7614;BME280;3848;42.016;23.098;2023-02-04T05:52:02;96915.41;;;2.97;100.00
7614;BME280;3848;42.016;23.098;2023-02-04T05:54:29;96908.75;;;2.98;100.00
7614;BME280;3848;42.016;23.098;2023-02-04T05:56:56;96906.28;;;3.01;100.00
7614;BME280;3848;42.016;23.098;2023-02-04T05:59:23;96893.72;;;3.01;100.00
7614;BME280;3848;42.016;23.098;2023-02-04T06:01:50;96903.75;;;2.99;100.00
7614;BME280;3848;42.016;23.098;2023-02-04T06:04:16;96905.47;;;3.02;100.00
7614;BME280;3848;42.016;23.098;2023-02-04T06:06:44;96909.63;;;3.01;100.00
7614;BME280;3848;42.016;23.098;2023-02-04T06:09:13;96916.25;;;2.98;100.00
7614;BME280;3848;42.016;23.098;2023-02-04T06:11:40;96917.91;;;2.96;100.00
7614;BME280;3848;42.016;23.098;2023-02-04T06:14:06;96916.94;;;2.89;100.00
7614;BME280;3848;42.016;23.098;2023-02-04T06:16:33;96920.09;;;2.79;100.00
7614;BME280;3848;42.016;23.098;2023-02-04T06:19:00;96922.50;;;2.73;100.00
7614;BME280;3848;42.016;23.098;2023-02-04T06:21:27;96931.56;;;2.68;100.00
7614;BME280;3848;42.016;23.098;2023-02-04T06:23:54;96926.44;;;2.62;100.00
7614;BME280;3848;42.016;23.098;2023-02-04T06:26:22;96928.81;;;2.54;100.00
7614;BME280;3848;42.016;23.098;2023-02-04T06:28:49;96920.94;;;2.36;100.00
7614;BME280;3848;42.016;23.098;2023-02-04T06:31:15;96927.34;;;2.23;100.00
7614;BME280;3848;42.016;23.098;2023-02-04T06:33:42;96929.88;;;2.25;100.00
7614;BME280;3848;42.016;23.098;2023-02-04T06:36:09;96916.03;;;2.03;100.00
7614;BME280;3848;42.016;23.098;2023-02-04T06:38:36;96939.50;;;2.06;100.00
7614;BME280;3848;42.016;23.098;2023-02-04T06:41:03;96943.53;;;2.00;100.00
7614;BME280;3848;42.016;23.098;2023-02-04T06:43:31;96946.78;;;1.96;100.00
7614;BME280;3848;42.016;23.098;2023-02-04T06:45:58;96936.69;;;1.91;100.00
7614;BME280;3848;42.016;23.098;2023-02-04T06:48:24;96944.16;;;1.90;100.00
7614;BME280;3848;42.016;23.098;2023-02-04T06:50:51;96936.75;;;1.94;100.00
7614;BME280;3848;42.016;23.098;2023-02-04T06:53:18;96948.50;;;1.98;100.00
7614;BME280;3848;42.016;23.098;2023-02-04T06:55:45;96938.41;;;1.94;100.00
7614;BME280;3848;42.016;23.098;2023-02-04T06:58:12;96943.34;;;1.91;100.00
7614;BME280;3848;42.016;23.098;2023-02-04T07:00:40;96949.97;;;1.89;100.00
7614;BME280;3848;42.016;23.098;2023-02-04T07:03:07;96930.66;;;1.84;100.00
7614;BME280;3848;42.016;23.098;2023-02-04T07:05:34;96924.00;;;1.85;100.00
7614;BME280;3848;42.016;23.098;2023-02-04T07:08:00;96920.91;;;1.95;100.00
7614;BME280;3848;42.016;23.098;2023-02-04T07:10:27;96920.97;;;1.98;100.00
7614;BME280;3848;42.016;23.098;2023-02-04T07:12:54;96922.72;;;2.02;100.00
7614;BME280;3848;42.016;23.098;2023-02-04T07:15:21;96916.84;;;2.02;100.00
7614;BME280;3848;42.016;23.098;2023-02-04T07:17:49;96916.81;;;2.00;100.00
7614;BME280;3848;42.016;23.098;2023-02-04T07:20:17;96912.56;;;1.96;100.00
7614;BME280;3848;42.016;23.098;2023-02-04T07:22:44;96912.47;;;1.92;100.00
7614;BME280;3848;42.016;23.098;2023-02-04T07:25:10;96911.66;;;1.93;100.00
7614;BME280;3848;42.016;23.098;2023-02-04T07:27:39;96910.75;;;1.89;100.00
7614;BME280;3848;42.016;23.098;2023-02-04T07:30:07;96907.50;;;1.93;100.00
7614;BME280;3848;42.016;23.098;2023-02-04T07:32:34;96913.41;;;1.97;100.00
7614;BME280;3848;42.016;23.098;2023-02-04T07:35:02;96913.56;;;2.04;100.00
7614;BME280;3848;42.016;23.098;2023-02-04T07:37:29;96906.03;;;2.04;100.00
7614;BME280;3848;42.016;23.098;2023-02-04T07:39:56;96899.63;;;2.16;100.00
7614;BME280;3848;42.016;23.098;2023-02-04T07:42:23;96917.31;;;2.23;100.00
7614;BME280;3848;42.016;23.098;2023-02-04T07:44:50;96914.72;;;2.19;100.00
7614;BME280;3848;42.016;23.098;2023-02-04T07:47:17;96911.31;;;2.15;100.00
7614;BME280;3848;42.016;23.098;2023-02-04T07:49:43;96891.91;;;2.08;100.00
7614;BME280;3848;42.016;23.098;2023-02-04T07:52:11;96902.28;;;2.23;100.00
7614;BME280;3848;42.016;23.098;2023-02-04T07:54:38;96904.78;;;2.23;100.00
7614;BME280;3848;42.016;23.098;2023-02-04T07:57:05;96909.84;;;2.26;100.00
7614;BME280;3848;42.016;23.098;2023-02-04T07:59:32;96910.72;;;2.28;100.00
7614;BME280;3848;42.016;23.098;2023-02-04T08:01:59;96907.53;;;2.34;100.00
7614;BME280;3848;42.016;23.098;2023-02-04T08:04:26;96905.22;;;2.44;100.00
7614;BME280;3848;42.016;23.098;2023-02-04T08:06:53;96897.09;;;2.56;100.00
7614;BME280;3848;42.016;23.098;2023-02-04T08:09:21;96895.44;;;2.57;100.00
7614;BME280;3848;42.016;23.098;2023-02-04T08:11:48;96900.50;;;2.60;100.00
7614;BME280;3848;42.016;23.098;2023-02-04T08:14:15;96902.28;;;2.65;100.00
7614;BME280;3848;42.016;23.098;2023-02-04T08:16:41;96891.53;;;2.71;100.00
7614;BME280;3848;42.016;23.098;2023-02-04T08:19:08;96895.03;;;2.81;100.00
7614;BME280;3848;42.016;23.098;2023-02-04T08:21:35;96891.00;;;2.89;100.00
7614;BME280;3848;42.016;23.098;2023-02-04T08:24:02;96890.19;;;2.91;100.00
7614;BME280;3848;42.016;23.098;2023-02-04T08:26:30;96892.00;;;2.98;100.00
7614;BME280;3848;42.016;23.098;2023-02-04T08:28:57;96880.28;;;2.97;100.00
7614;BME280;3848;42.016;23.098;2023-02-04T08:31:24;96876.19;;;3.02;100.00
7614;BME280;3848;42.016;23.098;2023-02-04T08:33:51;96874.72;;;3.14;100.00
7614;BME280;3848;42.016;23.098;2023-02-04T08:36:18;96868.97;;;3.21;100.00
7614;BME280;3848;42.016;23.098;2023-02-04T08:38:44;96858.09;;;3.22;100.00
7614;BME280;3848;42.016;23.098;2023-02-04T08:41:11;96867.63;;;3.41;100.00
7614;BME280;3848;42.016;23.098;2023-02-04T08:43:40;96877.72;;;3.44;100.00
7614;BME280;3848;42.016;23.098;2023-02-04T08:46:06;96871.94;;;3.51;100.00
7614;BME280;3848;42.016;23.098;2023-02-04T08:48:33;96854.31;;;3.48;100.00
7614;BME280;3848;42.016;23.098;2023-02-04T08:51:00;96873.00;;;3.65;100.00
7614;BME280;3848;42.016;23.098;2023-02-04T08:53:27;96883.22;;;3.76;100.00
7614;BME280;3848;42.016;23.098;2023-02-04T08:55:54;96874.88;;;3.79;100.00
7614;BME280;3848;42.016;23.098;2023-02-04T08:58:20;96885.84;;;3.84;100.00
7614;BME280;3848;42.016;23.098;2023-02-04T09:00:49;96878.34;;;3.88;100.00
7614;BME280;3848;42.016;23.098;2023-02-04T09:03:15;96873.41;;;3.94;100.00
7614;BME280;3848;42.016;23.098;2023-02-04T09:05:42;96886.03;;;3.97;100.00
7614;BME280;3848;42.016;23.098;2023-02-04T09:08:09;96858.25;;;3.90;100.00
7614;BME280;3848;42.016;23.098;2023-02-04T09:10:36;96878.53;;;4.02;100.00
7614;BME280;3848;42.016;23.098;2023-02-04T09:13:02;96885.34;;;4.09;100.00
7614;BME280;3848;42.016;23.098;2023-02-04T09:15:29;96881.22;;;4.14;100.00
7614;BME280;3848;42.016;23.098;2023-02-04T09:17:57;96877.13;;;4.21;100.00
7614;BME280;3848;42.016;23.098;2023-02-04T09:20:35;96872.91;;;4.18;100.00
7614;BME280;3848;42.016;23.098;2023-02-04T09:23:03;96870.38;;;4.18;100.00
7614;BME280;3848;42.016;23.098;2023-02-04T09:25:33;96869.56;;;4.19;100.00
7614;BME280;3848;42.016;23.098;2023-02-04T09:28:00;96867.91;;;4.21;100.00
7614;BME280;3848;42.016;23.098;2023-02-04T09:30:27;96866.19;;;4.17;100.00
7614;BME280;3848;42.016;23.098;2023-02-04T09:32:53;96872.06;;;4.18;100.00
7614;BME280;3848;42.016;23.098;2023-02-04T09:35:22;96865.28;;;4.14;100.00
7614;BME280;3848;42.016;23.098;2023-02-04T09:37:48;96807.09;;;3.83;100.00
7614;BME280;3848;42.016;23.098;2023-02-04T09:40:16;96803.72;;;3.83;100.00
7614;BME280;3848;42.016;23.098;2023-02-04T09:42:45;96833.31;;;4.02;100.00
7614;BME280;3848;42.016;23.098;2023-02-04T09:45:16;96840.91;;;4.08;100.00
7614;BME280;3848;42.016;23.098;2023-02-04T09:47:43;96854.31;;;4.09;100.00
7614;BME280;3848;42.016;23.098;2023-02-04T09:50:13;96729.63;;;3.50;100.00
7614;BME280;3848;42.016;23.098;2023-02-04T09:52:42;96831.72;;;4.12;100.00
7614;BME280;3848;42.016;23.098;2023-02-04T09:55:12;96836.78;;;4.13;100.00
7614;BME280;3848;42.016;23.098;2023-02-04T09:57:39;96844.34;;;4.16;100.00
7614;BME280;3848;42.016;23.098;2023-02-04T10:00:14;96841.72;;;4.06;100.00
7614;BME280;3848;42.016;23.098;2023-02-04T10:02:41;96832.66;;;4.17;100.00
7614;BME280;3848;42.016;23.098;2023-02-04T10:05:12;96831.84;;;4.18;100.00
7614;BME280;3848;42.016;23.098;2023-02-04T10:07:41;96820.00;;;4.12;100.00
7614;BME280;3848;42.016;23.098;2023-02-04T10:10:14;96811.75;;;4.22;100.00
7614;BME280;3848;42.016;23.098;2023-02-04T10:12:43;96814.34;;;4.28;100.00
7614;BME280;3848;42.016;23.098;2023-02-04T10:15:13;96807.69;;;4.34;100.00
7614;BME280;3848;42.016;23.098;2023-02-04T10:17:40;96811.00;;;4.31;100.00
7614;BME280;3848;42.016;23.098;2023-02-04T10:20:12;96813.53;;;4.33;100.00
7614;BME280;3848;42.016;23.098;2023-02-04T10:22:39;96805.25;;;4.40;100.00
7614;BME280;3848;42.016;23.098;2023-02-04T10:25:11;96802.81;;;4.47;100.00
7614;BME280;3848;42.016;23.098;2023-02-04T10:27:47;96799.50;;;4.53;100.00
7614;BME280;3848;42.016;23.098;2023-02-04T10:30:18;96791.13;;;4.55;100.00
7614;BME280;3848;42.016;23.098;2023-02-04T10:32:46;96775.31;;;4.66;100.00
7614;BME280;3848;42.016;23.098;2023-02-04T10:35:15;96770.44;;;4.82;100.00
7614;BME280;3848;42.016;23.098;2023-02-04T10:37:42;96771.34;;;4.92;100.00
7614;BME280;3848;42.016;23.098;2023-02-04T10:40:27;96764.78;;;5.11;100.00
7614;BME280;3848;42.016;23.098;2023-02-04T10:42:54;96764.03;;;5.24;100.00
7614;BME280;3848;42.016;23.098;2023-02-04T10:45:23;96765.81;;;5.40;100.00
7614;BME280;3848;42.016;23.098;2023-02-04T10:47:51;96768.41;;;5.49;100.00
7614;BME280;3848;42.016;23.098;2023-02-04T10:50:20;96772.69;;;5.66;100.00
7614;BME280;3848;42.016;23.098;2023-02-04T10:52:50;96770.19;;;5.75;100.00
7614;BME280;3848;42.016;23.098;2023-02-04T10:55:19;96760.09;;;5.70;100.00
7614;BME280;3848;42.016;23.098;2023-02-04T10:57:50;96747.50;;;5.72;100.00
7614;BME280;3848;42.016;23.098;2023-02-04T11:00:19;96739.16;;;5.85;100.00
7614;BME280;3848;42.016;23.098;2023-02-04T11:02:51;96739.25;;;6.03;100.00
7614;BME280;3848;42.016;23.098;2023-02-04T11:05:21;96729.25;;;6.31;100.00
7614;BME280;3848;42.016;23.098;2023-02-04T11:07:49;96730.97;;;6.59;100.00
7614;BME280;3848;42.016;23.098;2023-02-04T11:10:18;96725.06;;;6.83;100.00
7614;BME280;3848;42.016;23.098;2023-02-04T11:12:46;96726.75;;;7.07;100.00
7614;BME280;3848;42.016;23.098;2023-02-04T11:15:43;96715.78;;;7.28;100.00
7614;BME280;3848;42.016;23.098;2023-02-04T11:18:23;96709.00;;;7.44;100.00
7614;BME280;3848;42.016;23.098;2023-02-04T11:20:54;96702.19;;;7.67;100.00
7614;BME280;3848;42.016;23.098;2023-02-04T11:23:33;96692.81;;;7.93;100.00
7614;BME280;3848;42.016;23.098;2023-02-04T11:26:10;96700.28;;;8.12;100.00
7614;BME280;3848;42.016;23.098;2023-02-04T11:28:45;96696.81;;;8.28;100.00
7614;BME280;3848;42.016;23.098;2023-02-04T11:31:25;96690.91;;;8.38;100.00
7614;BME280;3848;42.016;23.098;2023-02-04T11:34:07;96693.31;;;8.53;100.00
7614;BME280;3848;42.016;23.098;2023-02-04T11:36:39;96683.13;;;8.63;100.00
7614;BME280;3848;42.016;23.098;2023-02-04T11:39:15;96678.06;;;8.63;100.00
7614;BME280;3848;42.016;23.098;2023-02-04T11:41:44;96678.13;;;8.50;100.00
7614;BME280;3848;42.016;23.098;2023-02-04T11:44:11;96662.22;;;8.33;100.00
7614;BME280;3848;42.016;23.098;2023-02-04T11:46:40;96683.34;;;8.34;100.00
7614;BME280;3848;42.016;23.098;2023-02-04T11:49:13;96669.91;;;8.18;100.00
7614;BME280;3848;42.016;23.098;2023-02-04T11:51:42;96674.16;;;8.11;100.00
7614;BME280;3848;42.016;23.098;2023-02-04T11:54:11;96676.72;;;8.04;100.00
7614;BME280;3848;42.016;23.098;2023-02-04T11:56:38;96663.31;;;7.92;100.00
7614;BME280;3848;42.016;23.098;2023-02-04T11:59:08;96674.28;;;7.93;100.00
7614;BME280;3848;42.016;23.098;2023-02-04T12:01:36;96663.31;;;7.86;100.00
7614;BME280;3848;42.016;23.098;2023-02-04T12:04:06;96659.19;;;7.75;100.00
7614;BME280;3848;42.016;23.098;2023-02-04T12:06:34;96660.88;;;7.71;100.00
7614;BME280;3848;42.016;23.098;2023-02-04T12:09:06;96660.91;;;7.65;100.00
7614;BME280;3848;42.016;23.098;2023-02-04T12:11:33;96659.25;;;7.58;100.00
7614;BME280;3848;42.016;23.098;2023-02-04T12:14:07;96650.84;;;7.51;100.00
7614;BME280;3848;42.016;23.098;2023-02-04T12:16:39;96652.53;;;7.45;100.00
7614;BME280;3848;42.016;23.098;2023-02-04T12:19:07;96649.19;;;7.40;100.00
7614;BME280;3848;42.016;23.098;2023-02-04T12:21:34;96645.88;;;7.33;100.00
7614;BME280;3848;42.016;23.098;2023-02-04T12:24:01;96633.22;;;7.34;100.00
7614;BME280;3848;42.016;23.098;2023-02-04T12:26:28;96627.31;;;7.28;100.00
7614;BME280;3848;42.016;23.098;2023-02-04T12:28:54;96625.63;;;7.36;100.00
7614;BME280;3848;42.016;23.098;2023-02-04T12:31:21;96614.66;;;7.42;100.00
7614;BME280;3848;42.016;23.098;2023-02-04T12:33:48;96617.16;;;7.52;100.00
7614;BME280;3848;42.016;23.098;2023-02-04T12:36:16;96614.59;;;7.57;100.00
7614;BME280;3848;42.016;23.098;2023-02-04T12:38:43;96596.94;;;7.52;100.00
7614;BME280;3848;42.016;23.098;2023-02-04T12:41:10;96618.72;;;7.76;100.00
7614;BME280;3848;42.016;23.098;2023-02-04T12:43:37;96613.59;;;7.84;100.00
7614;BME280;3848;42.016;23.098;2023-02-04T12:46:03;96616.09;;;7.90;100.00
7614;BME280;3848;42.016;23.098;2023-02-04T12:48:30;96614.41;;;7.90;100.00
7614;BME280;3848;42.016;23.098;2023-02-04T12:50:57;96620.31;;;7.86;100.00
7614;BME280;3848;42.016;23.098;2023-02-04T12:53:25;96631.28;;;7.88;100.00
7614;BME280;3848;42.016;23.098;2023-02-04T12:55:52;96615.25;;;7.86;100.00
7614;BME280;3848;42.016;23.098;2023-02-04T12:58:19;96609.34;;;7.93;100.00
7614;BME280;3848;42.016;23.098;2023-02-04T13:00:45;96607.63;;;7.99;100.00
7614;BME280;3848;42.016;23.098;2023-02-04T13:03:12;96610.09;;;8.03;100.00
7614;BME280;3848;42.016;23.098;2023-02-04T13:05:39;96608.34;;;8.11;100.00
7614;BME280;3848;42.016;23.098;2023-02-04T13:08:06;96615.94;;;8.16;100.00
7614;BME280;3848;42.016;23.098;2023-02-04T13:10:34;96612.56;;;8.15;100.00
7614;BME280;3848;42.016;23.098;2023-02-04T13:13:01;96603.34;;;8.07;100.00